createdAt,value
2022-10-01T00:01:27.514Z,100008.00
2022-10-01T00:04:01.338Z,100008.40
2022-10-01T00:06:33.999Z,100010.00
2022-10-01T00:09:06.999Z,100005.60
2022-10-01T00:11:39.872Z,100004.40
2022-10-01T00:14:12.872Z,100006.40
2022-10-01T00:16:45.856Z,100007.00
2022-10-01T00:19:18.924Z,100005.20
2022-10-01T00:21:51.609Z,100002.40
2022-10-01T00:24:24.301Z,100001.40
2022-10-01T00:26:57.903Z,99998.80
2022-10-01T00:29:32.112Z,100005.60
2022-10-01T00:32:05.372Z,100008.00
2022-10-01T00:34:38.100Z,100009.80
2022-10-01T00:37:11.073Z,100009.60
2022-10-01T00:39:44.429Z,100005.60
2022-10-01T00:42:24.840Z,100007.60
2022-10-01T00:44:58.544Z,100005.60
2022-10-01T00:47:37.979Z,100007.00
2022-10-01T00:50:19.756Z,100011.60
2022-10-01T00:53:01.117Z,100011.40
2022-10-01T00:55:37.592Z,100006.60
2022-10-01T00:58:11.803Z,100009.00
2022-10-01T01:00:45.126Z,100007.60
2022-10-01T01:03:18.834Z,100007.00
2022-10-01T01:05:51.717Z,100006.00
2022-10-01T01:08:24.903Z,100000.20
2022-10-01T01:11:08.106Z,99999.60
2022-10-01T01:13:51.268Z,99990.40
2022-10-01T01:16:34.277Z,99984.20
2022-10-01T01:19:20.885Z,99992.00
2022-10-01T01:22:00.677Z,99987.80
2022-10-01T01:24:45.739Z,99988.40
2022-10-01T01:27:31.631Z,99987.60
2022-10-01T01:30:09.196Z,99987.20
2022-10-01T01:32:52.997Z,99984.60
2022-10-01T01:35:32.416Z,99985.40
2022-10-01T01:38:09.774Z,99985.00
2022-10-01T01:40:45.916Z,99986.80
2022-10-01T01:43:24.634Z,99982.20
2022-10-01T01:45:59.925Z,99979.60
2022-10-01T01:48:36.547Z,99978.20
2022-10-01T01:51:18.158Z,99978.60
2022-10-01T01:53:50.963Z,99983.60
2022-10-01T01:56:24.128Z,99982.00
2022-10-01T01:58:58.528Z,99975.80
2022-10-01T02:01:42.488Z,99979.80
2022-10-01T02:04:20.790Z,99974.00
2022-10-01T02:07:17.220Z,99971.20
2022-10-01T02:10:01.574Z,99969.40
2022-10-01T02:12:50.330Z,99965.40
2022-10-01T02:15:32.463Z,99963.00
2022-10-01T02:18:16.693Z,99958.00
2022-10-01T02:20:56.136Z,99951.40
2022-10-01T02:23:33.466Z,99955.20
2022-10-01T02:26:12.233Z,99949.80
2022-10-01T02:28:49.014Z,99946.20
2022-10-01T02:31:24.054Z,99944.80
2022-10-01T02:33:59.857Z,99949.00
2022-10-01T02:36:35.934Z,99945.60
2022-10-01T02:39:10.344Z,99943.60
2022-10-01T02:41:45.760Z,99941.20
2022-10-01T02:44:23.632Z,99939.80
2022-10-01T02:47:03.469Z,99935.60
2022-10-01T02:49:37.246Z,99928.80
2022-10-01T02:52:18.902Z,99928.40
2022-10-01T02:54:57.975Z,99927.60
2022-10-01T02:57:31.362Z,99932.00
2022-10-01T03:00:07.932Z,99939.20
2022-10-01T03:02:40.715Z,99936.20
2022-10-01T03:05:15.005Z,99936.00
2022-10-01T03:07:48.610Z,99930.40
2022-10-01T03:10:22.007Z,99925.80
2022-10-01T03:12:54.952Z,99926.00
2022-10-01T03:15:27.530Z,99924.80
2022-10-01T03:18:00.223Z,99925.00
2022-10-01T03:20:32.992Z,99923.00
2022-10-01T03:23:05.668Z,99927.20
2022-10-01T03:25:38.357Z,99929.20
2022-10-01T03:28:11.111Z,99927.00
2022-10-01T03:30:43.709Z,99928.20
2022-10-01T03:33:16.592Z,99922.00
2022-10-01T03:35:49.576Z,99922.80
2022-10-01T03:38:22.153Z,99918.20
2022-10-01T03:40:54.935Z,99916.20
2022-10-01T03:43:29.173Z,99917.00
2022-10-01T03:46:02.505Z,99915.00
2022-10-01T03:48:35.343Z,99909.80
2022-10-01T03:51:08.704Z,99907.00
2022-10-01T03:53:41.513Z,99909.00
2022-10-01T03:56:14.403Z,99912.00
2022-10-01T03:58:47.180Z,99916.20
2022-10-01T04:01:20.616Z,99918.80
2022-10-01T04:03:53.570Z,99913.20
2022-10-01T04:06:26.555Z,99912.20
2022-10-01T04:08:59.552Z,99913.80
2022-10-01T04:11:32.523Z,99906.40
2022-10-01T04:14:06.026Z,99908.40
2022-10-01T04:16:38.733Z,99904.00
2022-10-01T04:19:11.378Z,99908.40
2022-10-01T04:21:44.326Z,99904.60
2022-10-01T04:24:16.943Z,99906.00
2022-10-01T04:26:51.870Z,99901.40
2022-10-01T04:29:24.659Z,99904.80
2022-10-01T04:31:58.532Z,99903.40
2022-10-01T04:34:45.193Z,99906.20
2022-10-01T04:37:17.880Z,99904.40
2022-10-01T04:39:50.747Z,99900.00
2022-10-01T04:42:23.724Z,99905.60
2022-10-01T04:44:57.633Z,99906.60
2022-10-01T04:47:32.678Z,99898.60
2022-10-01T04:50:08.828Z,99901.00
2022-10-01T04:52:41.554Z,99900.80
2022-10-01T04:55:15.940Z,99901.80
2022-10-01T04:57:49.583Z,99906.00
2022-10-01T05:00:24.925Z,99901.60
2022-10-01T05:02:58.475Z,99904.80
2022-10-01T05:05:33.305Z,99901.60
2022-10-01T05:08:09.367Z,99897.00
2022-10-01T05:10:42.250Z,99897.60
2022-10-01T05:13:14.927Z,99901.60
2022-10-01T05:15:49.441Z,99895.20
2022-10-01T05:18:22.327Z,99892.60
2022-10-01T05:20:57.984Z,99891.20
2022-10-01T05:23:30.766Z,99889.20
2022-10-01T05:26:05.905Z,99892.40
2022-10-01T05:28:44.932Z,99893.40
2022-10-01T05:31:18.959Z,99888.80
2022-10-01T05:33:52.005Z,99892.60
2022-10-01T05:36:25.019Z,99887.40
2022-10-01T05:38:57.615Z,99891.00
2022-10-01T05:41:30.506Z,99887.40
2022-10-01T05:44:03.688Z,99895.20
2022-10-01T05:46:36.488Z,99893.20
2022-10-01T05:49:09.649Z,99891.60
2022-10-01T05:51:42.572Z,99889.80
2022-10-01T05:54:16.549Z,99889.60
2022-10-01T05:56:49.120Z,99880.40
2022-10-01T05:59:21.699Z,99881.60
2022-10-01T06:01:54.845Z,99875.40
2022-10-01T06:04:28.289Z,99876.40
2022-10-01T06:07:01.244Z,99878.20
2022-10-01T06:09:33.994Z,99876.60
2022-10-01T06:12:10.734Z,99870.60
2022-10-01T06:14:43.610Z,99878.60
2022-10-01T06:17:16.294Z,99877.40
2022-10-01T06:19:49.072Z,99882.60
2022-10-01T06:22:21.666Z,99882.40
2022-10-01T06:24:56.719Z,99883.60
2022-10-01T06:27:29.875Z,99885.40
2022-10-01T06:30:02.774Z,99883.20
2022-10-01T06:32:35.956Z,99880.40
2022-10-01T06:35:10.228Z,99878.20
2022-10-01T06:37:43.193Z,99875.80
2022-10-01T06:40:16.349Z,99874.80
2022-10-01T06:42:56.748Z,99870.80
2022-10-01T06:45:28.968Z,99870.80
2022-10-01T06:48:03.643Z,99868.80
2022-10-01T06:50:37.936Z,99867.00
2022-10-01T06:53:11.962Z,99873.60
2022-10-01T06:55:45.509Z,99870.00
2022-10-01T06:58:22.747Z,99871.80
2022-10-01T07:01:01.678Z,99866.20
2022-10-01T07:03:35.198Z,99861.80
2022-10-01T07:06:11.657Z,99864.60
2022-10-01T07:08:44.398Z,99856.40
2022-10-01T07:11:17.238Z,99851.20
2022-10-01T07:13:54.507Z,99854.40
2022-10-01T07:16:27.490Z,99853.20
2022-10-01T07:19:00.249Z,99843.20
2022-10-01T07:21:33.240Z,99847.20
2022-10-01T07:24:06.848Z,99849.20
2022-10-01T07:26:39.711Z,99857.40
2022-10-01T07:29:12.394Z,99852.40
2022-10-01T07:31:45.126Z,99841.80
2022-10-01T07:34:38.357Z,99834.20
2022-10-01T07:37:11.429Z,99828.20
2022-10-01T07:39:45.498Z,99823.40
2022-10-01T07:42:18.241Z,99821.20
2022-10-01T07:44:51.411Z,99821.60
2022-10-01T07:47:24.211Z,99823.60
2022-10-01T07:49:56.920Z,99821.40
2022-10-01T07:52:29.828Z,99824.40
2022-10-01T07:55:02.841Z,99822.40
2022-10-01T07:57:35.623Z,99813.40
2022-10-01T08:00:11.285Z,99810.20
2022-10-01T08:02:49.939Z,99810.80
2022-10-01T08:05:25.744Z,99817.20
2022-10-01T08:08:01.700Z,99820.60
2022-10-01T08:10:36.804Z,99809.40
2022-10-01T08:13:14.813Z,99805.40
2022-10-01T08:15:50.736Z,99806.40
2022-10-01T08:18:24.674Z,99805.00
2022-10-01T08:20:57.389Z,99801.20
2022-10-01T08:23:30.543Z,99796.20
2022-10-01T08:26:07.627Z,99794.00
2022-10-01T08:28:41.398Z,99789.80
2022-10-01T08:31:14.150Z,99784.20
2022-10-01T08:33:48.265Z,99777.20
2022-10-01T08:36:22.334Z,99779.40
2022-10-01T08:38:55.060Z,99774.20
2022-10-01T08:41:49.863Z,99758.60
2022-10-01T08:44:28.133Z,99759.40
2022-10-01T08:47:09.412Z,99757.40
2022-10-01T08:49:45.984Z,99749.00
2022-10-01T08:52:25.864Z,99739.60
2022-10-01T08:55:03.881Z,99727.40
2022-10-01T08:57:44.930Z,99723.40
2022-10-01T09:00:20.873Z,99724.40
2022-10-01T09:02:54.109Z,99721.40
2022-10-01T09:05:38.593Z,99726.20
2022-10-01T09:08:25.505Z,99725.20
2022-10-01T09:11:06.034Z,99721.20
2022-10-01T09:14:04.331Z,99719.80
2022-10-01T09:16:46.764Z,99711.40
2022-10-01T09:19:40.797Z,99713.00
2022-10-01T09:22:28.238Z,99707.20
2022-10-01T09:25:12.463Z,99703.00
2022-10-01T09:27:46.065Z,99698.60
2022-10-01T09:30:22.628Z,99701.40
2022-10-01T09:33:01.328Z,99702.20
2022-10-01T09:35:44.707Z,99693.00
2022-10-01T09:38:24.587Z,99695.00
2022-10-01T09:40:59.569Z,99698.00
2022-10-01T09:43:35.449Z,99697.80
2022-10-01T09:46:13.741Z,99691.00
2022-10-01T09:48:56.055Z,99689.00
2022-10-01T09:51:40.208Z,99690.80
2022-10-01T09:54:21.585Z,99688.60
2022-10-01T09:57:01.238Z,99684.60
2022-10-01T09:59:41.745Z,99678.00
2022-10-01T10:02:27.034Z,99682.80
2022-10-01T10:05:10.223Z,99680.20
2022-10-01T10:07:48.282Z,99670.00
2022-10-01T10:10:28.777Z,99669.00
2022-10-01T10:13:06.758Z,99663.80
2022-10-01T10:15:44.019Z,99660.80
2022-10-01T10:18:23.132Z,99660.20
2022-10-01T10:20:57.945Z,99654.80
2022-10-01T10:23:31.845Z,99657.80
2022-10-01T10:26:07.909Z,99655.60
2022-10-01T10:28:48.318Z,99651.60
2022-10-01T10:31:24.436Z,99643.40
2022-10-01T10:34:06.902Z,99638.40
2022-10-01T10:36:40.936Z,99637.40
2022-10-01T10:39:24.650Z,99631.60
2022-10-01T10:42:00.225Z,99627.40
2022-10-01T10:44:36.313Z,99623.00
2022-10-01T10:47:13.787Z,99622.20
2022-10-01T10:49:50.044Z,99615.20
2022-10-01T10:52:32.607Z,99608.40
2022-10-01T10:55:25.258Z,99599.60
2022-10-01T10:58:10.574Z,99596.00
2022-10-01T11:00:51.840Z,99594.80
2022-10-01T11:03:28.191Z,99592.40
2022-10-01T11:06:11.447Z,99588.00
2022-10-01T11:08:46.694Z,99588.80
2022-10-01T11:11:34.112Z,99582.40
2022-10-01T11:14:23.904Z,99574.60
2022-10-01T11:17:18.885Z,99578.60
2022-10-01T11:20:21.053Z,99577.00
2022-10-01T11:23:16.064Z,99572.20
2022-10-01T11:25:59.696Z,99563.80
2022-10-01T11:28:47.067Z,99555.20
2022-10-01T11:31:32.051Z,99551.20
2022-10-01T11:34:41.556Z,99550.40
2022-10-01T11:37:31.899Z,99546.80
2022-10-01T11:40:17.107Z,99545.80
2022-10-01T11:42:53.131Z,99542.20
2022-10-01T11:45:30.471Z,99540.40
2022-10-01T11:48:06.943Z,99539.40
2022-10-01T11:50:44.316Z,99545.00
2022-10-01T11:53:23.546Z,99537.40
2022-10-01T11:56:19.875Z,99535.40
2022-10-01T11:58:58.610Z,99536.40
2022-10-01T12:01:37.184Z,99530.00
2022-10-01T12:04:22.349Z,99526.00
2022-10-01T12:07:04.399Z,99520.00
2022-10-01T12:09:54.687Z,99519.60
2022-10-01T12:12:32.436Z,99514.60
2022-10-01T12:15:15.425Z,99506.60
2022-10-01T12:17:53.980Z,99511.00
2022-10-01T12:20:32.855Z,99506.40
2022-10-01T12:23:09.517Z,99506.00
2022-10-01T12:25:52.469Z,99505.80
2022-10-01T12:28:32.755Z,99502.80
2022-10-01T12:31:09.762Z,99499.80
2022-10-01T12:34:15.356Z,99494.00
2022-10-01T12:37:04.549Z,99495.80
2022-10-01T12:39:55.104Z,99488.60
2022-10-01T12:43:04.438Z,99479.20
2022-10-01T12:45:52.942Z,99474.00
2022-10-01T12:48:33.570Z,99466.20
2022-10-01T12:51:28.860Z,99467.60
2022-10-01T12:54:13.459Z,99465.60
2022-10-01T12:56:51.655Z,99459.00
2022-10-01T12:59:59.453Z,99465.00
2022-10-01T13:03:00.279Z,99459.60
2022-10-01T13:05:45.044Z,99462.40
2022-10-01T13:08:35.127Z,99464.20
2022-10-01T13:11:20.871Z,99460.20
2022-10-01T13:13:56.570Z,99455.20
2022-10-01T13:16:38.229Z,99456.00
2022-10-01T13:19:18.521Z,99451.20
2022-10-01T13:22:09.320Z,99453.00
2022-10-01T13:24:49.788Z,99445.80
2022-10-01T13:27:30.921Z,99440.00
2022-10-01T13:30:08.188Z,99440.20
2022-10-01T13:32:54.348Z,99441.60
2022-10-01T13:35:35.612Z,99447.60
2022-10-01T13:38:40.562Z,99439.60
2022-10-01T13:41:24.787Z,99442.60
2022-10-01T13:44:05.789Z,99440.60
2022-10-01T13:46:53.051Z,99440.80
2022-10-01T13:49:29.280Z,99436.00
2022-10-01T13:52:03.372Z,99433.80
2022-10-01T13:54:46.921Z,99436.80
2022-10-01T13:57:34.289Z,99438.20
2022-10-01T14:00:24.836Z,99431.40
2022-10-01T14:03:28.972Z,99423.80
2022-10-01T14:06:03.646Z,99423.80
2022-10-01T14:08:45.243Z,99415.80
2022-10-01T14:11:43.884Z,99412.00
2022-10-01T14:14:42.447Z,99405.80
2022-10-01T14:17:20.239Z,99406.00
2022-10-01T14:19:53.619Z,99395.40
2022-10-01T14:22:54.683Z,99392.80
2022-10-01T14:25:45.188Z,99394.80
2022-10-01T14:28:37.007Z,99400.40
2022-10-01T14:31:17.408Z,99397.20
2022-10-01T14:34:20.251Z,99390.40
2022-10-01T14:36:55.490Z,99389.20
2022-10-01T14:39:30.873Z,99389.60
2022-10-01T14:42:16.961Z,99382.60
2022-10-01T14:44:50.633Z,99384.60
2022-10-01T14:47:28.025Z,99383.20
2022-10-01T14:50:12.791Z,99382.80
2022-10-01T14:52:49.535Z,99383.80
2022-10-01T14:55:24.644Z,99379.80
2022-10-01T14:57:58.916Z,99381.20
2022-10-01T15:00:35.011Z,99386.80
2022-10-01T15:03:15.957Z,99391.80
2022-10-01T15:05:50.864Z,99404.80
2022-10-01T15:08:37.079Z,99419.40
2022-10-01T15:11:15.823Z,99431.80
2022-10-01T15:13:51.551Z,99444.40
2022-10-01T15:16:30.108Z,99440.40
2022-10-01T15:19:08.276Z,99440.80
2022-10-01T15:21:45.875Z,99449.20
2022-10-01T15:24:27.571Z,99449.20
2022-10-01T15:27:02.039Z,99442.80
2022-10-01T15:29:35.809Z,99443.20
2022-10-01T15:32:08.853Z,99442.40
2022-10-01T15:34:44.632Z,99440.80
2022-10-01T15:37:22.433Z,99448.00
2022-10-01T15:39:56.551Z,99445.60
2022-10-01T15:42:32.984Z,99448.40
2022-10-01T15:45:26.970Z,99445.40
2022-10-01T15:47:59.559Z,99446.40
2022-10-01T15:50:36.815Z,99445.80
2022-10-01T15:53:20.387Z,99440.40
2022-10-01T15:55:57.128Z,99436.80
2022-10-01T15:58:35.241Z,99432.20
2022-10-01T16:01:10.796Z,99431.40
2022-10-01T16:03:52.767Z,99430.80
2022-10-01T16:06:28.579Z,99427.60
2022-10-01T16:12:25.019Z,99419.40
2022-10-01T16:15:06.440Z,99423.60
2022-10-01T16:17:40.465Z,99418.00
2022-10-01T16:20:46.626Z,99417.20
2022-10-01T16:23:42.020Z,99422.40
2022-10-01T16:26:40.462Z,99420.40
2022-10-01T16:29:27.588Z,99419.00
2022-10-01T16:35:02.253Z,99414.20
2022-10-01T16:37:37.164Z,99416.60
2022-10-01T16:40:15.935Z,99420.40
2022-10-01T16:42:50.770Z,99419.20
2022-10-01T16:45:26.065Z,99419.00
2022-10-01T16:47:59.216Z,99418.40
2022-10-01T16:50:31.867Z,99406.40
2022-10-01T16:53:04.527Z,99412.80
2022-10-01T16:55:38.208Z,99422.80
2022-10-01T16:58:11.223Z,99415.00
2022-10-01T17:00:44.211Z,99418.20
2022-10-01T17:03:20.949Z,99417.40
2022-10-01T17:05:53.655Z,99420.20
2022-10-01T17:08:26.392Z,99408.60
2022-10-01T17:11:04.345Z,99410.60
2022-10-01T17:13:38.317Z,99418.00
2022-10-01T17:16:11.465Z,99411.00
2022-10-01T17:18:44.247Z,99412.60
2022-10-01T17:21:16.933Z,99422.60
2022-10-01T17:23:53.361Z,99428.60
2022-10-01T17:26:26.553Z,99419.60
2022-10-01T17:28:59.347Z,99429.80
2022-10-01T17:31:32.945Z,99427.00
2022-10-01T17:34:05.872Z,99429.40
2022-10-01T17:36:39.024Z,99431.20
2022-10-01T17:39:11.910Z,99427.80
2022-10-01T17:41:44.797Z,99431.40
2022-10-01T17:44:17.790Z,99433.60
2022-10-01T17:46:50.585Z,99425.20
2022-10-01T17:49:23.660Z,99425.60
2022-10-01T17:51:56.539Z,99433.20
2022-10-01T17:54:29.783Z,99426.60
2022-10-01T17:57:02.412Z,99431.60
2022-10-01T17:59:35.177Z,99429.80
2022-10-01T18:02:29.575Z,99431.40
2022-10-01T18:05:03.698Z,99434.00
2022-10-01T18:07:37.500Z,99432.80
2022-10-01T18:10:14.010Z,99436.60
2022-10-01T18:12:46.641Z,99439.40
2022-10-01T18:15:21.130Z,99448.20
2022-10-01T18:18:38.102Z,99447.00
2022-10-01T18:20:47.113Z,99451.20
2022-10-01T18:23:20.005Z,99453.80
2022-10-01T18:25:52.781Z,99450.20
2022-10-01T18:28:27.217Z,99447.60
2022-10-01T18:31:24.460Z,99453.00
2022-10-01T18:34:00.847Z,99452.80
2022-10-01T18:36:43.955Z,99459.20
2022-10-01T18:39:25.150Z,99459.40
2022-10-01T18:41:59.355Z,99459.60
2022-10-01T18:44:32.338Z,99452.80
2022-10-01T18:47:18.191Z,99459.80
2022-10-01T18:50:08.678Z,99450.20
2022-10-01T18:52:55.836Z,99447.00
2022-10-01T18:55:47.548Z,99445.60
2022-10-01T18:58:45.550Z,99441.00
2022-10-01T19:01:31.128Z,99447.40
2022-10-01T19:04:30.109Z,99447.60
2022-10-01T19:07:15.728Z,99443.20
2022-10-01T19:09:59.637Z,99446.80
2022-10-01T19:12:50.729Z,99453.80
2022-10-01T19:15:40.037Z,99453.00
2022-10-01T19:18:37.404Z,99453.80
2022-10-01T19:21:28.924Z,99457.60
2022-10-01T19:24:36.864Z,99460.40
2022-10-01T19:27:25.888Z,99457.20
2022-10-01T19:30:07.629Z,99454.20
2022-10-01T19:32:47.720Z,99455.80
2022-10-01T19:35:24.650Z,99456.00
2022-10-01T19:38:04.438Z,99457.40
2022-10-01T19:40:43.161Z,99457.00
2022-10-01T19:43:28.353Z,99454.60
2022-10-01T19:46:15.384Z,99462.20
2022-10-01T19:48:56.107Z,99466.20
2022-10-01T19:51:40.675Z,99466.80
2022-10-01T19:54:21.313Z,99469.60
2022-10-01T19:57:03.151Z,99470.80
2022-10-01T19:59:36.040Z,99472.80
2022-10-01T20:02:19.406Z,99472.40
2022-10-01T20:04:59.111Z,99476.80
2022-10-01T20:07:42.030Z,99476.40
2022-10-01T20:10:25.563Z,99473.80
2022-10-01T20:13:17.055Z,99476.60
2022-10-01T20:16:00.471Z,99471.40
2022-10-01T20:18:41.543Z,99474.40
2022-10-01T20:21:32.092Z,99477.40
2022-10-01T20:24:10.572Z,99471.20
2022-10-01T20:26:50.675Z,99475.00
2022-10-01T20:29:39.724Z,99474.60
2022-10-01T20:32:20.976Z,99470.00
2022-10-01T20:35:11.132Z,99474.80
2022-10-01T20:38:00.292Z,99481.20
2022-10-01T20:40:40.122Z,99480.00
2022-10-01T20:43:21.075Z,99479.00
2022-10-01T20:45:56.820Z,99487.00
2022-10-01T20:48:37.278Z,99488.20
2022-10-01T20:51:16.278Z,99487.80
2022-10-01T20:53:55.354Z,99495.60
2022-10-01T20:56:33.686Z,99496.40
2022-10-01T20:59:13.479Z,99496.00
2022-10-01T21:02:02.626Z,99497.60
2022-10-01T21:04:42.013Z,99499.40
2022-10-01T21:07:30.084Z,99504.00
2022-10-01T21:10:05.494Z,99504.60
2022-10-01T21:12:46.053Z,99506.80
2022-10-01T21:15:19.640Z,99509.40
2022-10-01T21:18:01.255Z,99511.00
2022-10-01T21:20:51.332Z,99510.40
2022-10-01T21:23:45.353Z,99513.00
2022-10-01T21:26:29.666Z,99520.40
2022-10-01T21:29:26.341Z,99525.40
2022-10-01T21:32:15.373Z,99519.40
2022-10-01T21:35:02.349Z,99517.40
2022-10-01T21:37:41.125Z,99524.40
2022-10-01T21:40:26.899Z,99519.20
2022-10-01T21:43:11.149Z,99521.00
2022-10-01T21:45:53.133Z,99530.00
2022-10-01T21:48:41.592Z,99526.40
2022-10-01T21:51:25.242Z,99528.60
2022-10-01T21:54:45.145Z,99532.60
2022-10-01T21:57:43.512Z,99531.00
2022-10-01T22:00:21.676Z,99534.00
2022-10-01T22:03:11.191Z,99532.00
2022-10-01T22:05:52.154Z,99529.40
2022-10-01T22:08:45.830Z,99533.40
2022-10-01T22:11:23.531Z,99534.80
2022-10-01T22:14:00.312Z,99540.00
2022-10-01T22:16:39.509Z,99544.60
2022-10-01T22:19:18.941Z,99542.60
2022-10-01T22:21:58.231Z,99546.00
2022-10-01T22:24:34.853Z,99555.20
2022-10-01T22:27:13.795Z,99550.60
2022-10-01T22:29:53.352Z,99554.20
2022-10-01T22:32:30.642Z,99558.00
2022-10-01T22:35:08.546Z,99554.20
2022-10-01T22:37:47.034Z,99559.80
2022-10-01T22:40:24.613Z,99566.80
2022-10-01T22:43:06.038Z,99568.60
2022-10-01T22:45:56.169Z,99570.40
2022-10-01T22:48:47.441Z,99574.00
2022-10-01T22:51:39.030Z,99577.00
2022-10-01T22:54:45.748Z,99581.80
2022-10-01T22:57:37.675Z,99581.40
2022-10-01T23:00:13.489Z,99583.20
2022-10-01T23:02:49.512Z,99586.20
2022-10-01T23:05:41.517Z,99588.80
2022-10-01T23:08:28.738Z,99588.80
2022-10-01T23:11:13.909Z,99591.00
2022-10-01T23:13:57.784Z,99593.00
2022-10-01T23:16:40.832Z,99600.60
2022-10-01T23:19:32.864Z,99608.20
2022-10-01T23:22:14.946Z,99612.20
2022-10-01T23:25:02.747Z,99618.40
2022-10-01T23:27:47.862Z,99624.20
2022-10-01T23:30:22.396Z,99620.20
2022-10-01T23:33:35.773Z,99632.40
2022-10-01T23:36:18.310Z,99642.00
2022-10-01T23:39:20.529Z,99644.00
2022-10-01T23:41:58.745Z,99648.60
2022-10-01T23:44:40.253Z,99647.80
2022-10-01T23:47:21.640Z,99648.20
2022-10-01T23:49:58.637Z,99652.40
2022-10-01T23:52:40.102Z,99654.00
2022-10-01T23:55:40.841Z,99662.40
2022-10-01T23:58:18.932Z,99664.20
